createdAt,value
2019-03-10T00:01:58.040Z,408.60
2019-03-10T00:04:04.806Z,403.17
2019-03-10T00:06:09.524Z,395.00
2019-03-10T00:08:14.189Z,381.77
2019-03-10T00:10:19.034Z,375.73
2019-03-10T00:12:27.520Z,403.00
2019-03-10T00:14:34.495Z,490.93
2019-03-10T00:16:39.154Z,566.60
2019-03-10T00:18:44.019Z,665.40
2019-03-10T00:20:49.490Z,568.40
2019-03-10T00:22:54.363Z,533.73
2019-03-10T00:24:59.146Z,482.30
2019-03-10T00:27:04.620Z,478.07
2019-03-10T00:29:09.304Z,479.07
2019-03-10T00:31:15.462Z,474.03
2019-03-10T00:33:20.408Z,461.63
2019-03-10T00:35:25.146Z,440.67
2019-03-10T00:37:29.423Z,471.23
2019-03-10T00:40:12.958Z,519.40
2019-03-10T00:42:49.654Z,619.70
2019-03-10T00:45:34.285Z,624.17
2019-03-10T00:48:05.122Z,617.67
2019-03-10T00:50:53.672Z,765.63
2019-03-10T00:53:01.343Z,652.03
2019-03-10T00:55:08.098Z,582.80
2019-03-10T00:57:12.521Z,654.47
2019-03-10T00:59:16.902Z,595.33
2019-03-10T01:01:21.333Z,510.60
2019-03-10T01:03:25.617Z,692.83
2019-03-10T01:05:30.042Z,559.00
2019-03-10T01:07:34.698Z,621.33
2019-03-10T01:09:39.320Z,493.67
2019-03-10T01:11:43.907Z,438.17
2019-03-10T01:13:48.589Z,388.50
2019-03-10T01:15:52.830Z,434.23
2019-03-10T01:17:57.403Z,535.27
2019-03-10T01:20:02.204Z,579.47
2019-03-10T01:22:07.125Z,561.63
2019-03-10T01:24:11.522Z,565.17
2019-03-10T01:26:16.132Z,547.60
2019-03-10T01:28:20.593Z,496.43
2019-03-10T01:30:25.291Z,471.90
2019-03-10T01:33:06.841Z,443.23
2019-03-10T01:35:23.459Z,427.70
2019-03-10T01:37:27.903Z,424.03
2019-03-10T01:39:32.565Z,395.83
2019-03-10T01:41:36.966Z,394.07
2019-03-10T01:43:41.513Z,374.97
2019-03-10T01:45:46.500Z,367.60
2019-03-10T01:47:51.073Z,357.70
2019-03-10T01:49:55.473Z,344.53
2019-03-10T01:51:59.959Z,341.37
2019-03-10T01:54:04.801Z,333.73
2019-03-10T01:56:09.438Z,327.37
2019-03-10T01:58:13.979Z,313.73
2019-03-10T02:00:18.494Z,302.93
2019-03-10T02:02:25.741Z,305.00
2019-03-10T02:04:28.879Z,291.27
2019-03-10T02:06:33.341Z,293.40
2019-03-10T02:08:37.738Z,284.90
2019-03-10T02:10:42.494Z,283.53
2019-03-10T02:12:47.731Z,274.97
2019-03-10T02:14:52.371Z,261.90
2019-03-10T02:16:57.810Z,256.40
2019-03-10T02:19:02.539Z,251.80
2019-03-10T02:21:09.123Z,242.67
2019-03-10T02:23:13.898Z,241.70
2019-03-10T02:25:18.314Z,337.30
2019-03-10T02:27:22.506Z,360.13
2019-03-10T02:29:26.859Z,279.93
2019-03-10T02:31:31.807Z,233.07
2019-03-10T02:33:36.242Z,230.80
2019-03-10T02:35:40.646Z,214.43
2019-03-10T02:37:45.335Z,201.30
2019-03-10T02:39:49.829Z,204.67
2019-03-10T02:41:54.348Z,347.70
2019-03-10T02:43:58.609Z,439.03
2019-03-10T02:46:03.204Z,430.03
2019-03-10T02:48:07.967Z,429.27
2019-03-10T02:50:12.575Z,555.47
2019-03-10T02:52:17.120Z,629.53
2019-03-10T02:54:22.169Z,888.20
2019-03-10T02:56:26.882Z,857.37
2019-03-10T02:58:32.557Z,839.73
2019-03-10T03:00:38.845Z,829.63
2019-03-10T03:02:45.192Z,744.50
2019-03-10T03:04:51.210Z,715.50
2019-03-10T03:06:55.929Z,725.17
2019-03-10T03:09:01.142Z,683.50
2019-03-10T03:11:07.855Z,611.47
2019-03-10T03:13:12.226Z,617.20
2019-03-10T03:15:16.561Z,724.83
2019-03-10T03:17:20.892Z,817.50
2019-03-10T03:19:25.509Z,951.47
2019-03-10T03:21:42.476Z,772.13
2019-03-10T03:23:35.967Z,747.67
2019-03-10T03:25:40.453Z,669.40
2019-03-10T03:27:44.695Z,673.33
2019-03-10T03:29:49.121Z,681.43
2019-03-10T03:31:53.819Z,553.97
2019-03-10T03:33:58.164Z,436.00
2019-03-10T03:36:22.345Z,366.73
2019-03-10T03:38:33.676Z,298.73
2019-03-10T03:40:38.315Z,268.20
2019-03-10T03:42:42.746Z,247.60
2019-03-10T03:44:47.369Z,232.83
2019-03-10T03:46:52.049Z,223.50
2019-03-10T03:48:56.554Z,285.83
2019-03-10T03:51:01.333Z,340.17
2019-03-10T03:53:07.018Z,777.83
2019-03-10T03:55:11.656Z,616.20
2019-03-10T03:57:16.138Z,412.57
2019-03-10T03:59:20.656Z,278.50
2019-03-10T04:01:31.785Z,218.90
2019-03-10T04:03:36.090Z,203.63
2019-03-10T04:05:41.037Z,186.00
2019-03-10T04:07:45.565Z,194.17
2019-03-10T04:09:50.229Z,191.77
2019-03-10T04:11:54.796Z,186.53
2019-03-10T04:13:59.310Z,175.40
2019-03-10T04:16:04.947Z,170.57
2019-03-10T04:18:09.618Z,162.77
2019-03-10T04:20:13.991Z,161.37
2019-03-10T04:22:19.092Z,157.67
2019-03-10T04:24:23.590Z,156.30
2019-03-10T04:26:29.548Z,154.20
2019-03-10T04:28:34.116Z,150.27
2019-03-10T04:30:38.705Z,143.87
2019-03-10T04:32:43.681Z,143.87
2019-03-10T04:34:48.518Z,138.77
2019-03-10T04:36:52.682Z,135.07
2019-03-10T04:38:57.254Z,129.10
2019-03-10T04:41:01.512Z,132.00
2019-03-10T04:43:05.940Z,126.57
2019-03-10T04:45:10.465Z,125.67
2019-03-10T04:47:15.126Z,124.07
2019-03-10T04:49:19.379Z,120.73
2019-03-10T04:51:24.099Z,117.17
2019-03-10T04:53:28.735Z,113.37
2019-03-10T04:55:47.474Z,113.17
2019-03-10T04:58:16.658Z,107.60
2019-03-10T05:00:21.031Z,104.23
2019-03-10T05:02:25.523Z,101.00
2019-03-10T05:04:31.574Z,105.60
2019-03-10T05:06:36.181Z,94.17
2019-03-10T05:08:40.480Z,97.03
2019-03-10T05:10:45.116Z,95.67
2019-03-10T05:12:49.491Z,91.60
2019-03-10T05:14:54.018Z,90.63
2019-03-10T05:16:58.477Z,87.80
2019-03-10T05:19:03.342Z,85.90
2019-03-10T05:21:08.005Z,84.13
2019-03-10T05:23:38.490Z,81.40
2019-03-10T05:25:43.120Z,78.57
2019-03-10T05:27:47.814Z,77.70
2019-03-10T05:29:52.317Z,79.00
2019-03-10T05:31:56.761Z,74.10
2019-03-10T05:34:01.651Z,74.50
2019-03-10T05:36:06.817Z,69.83
2019-03-10T05:38:11.627Z,69.90
2019-03-10T05:40:16.366Z,67.57
2019-03-10T05:42:20.832Z,66.57
2019-03-10T05:44:25.227Z,63.90
2019-03-10T05:46:29.410Z,63.20
2019-03-10T05:48:33.865Z,63.83
2019-03-10T05:50:38.414Z,59.63
2019-03-10T05:52:42.944Z,58.40
2019-03-10T05:54:47.702Z,57.93
2019-03-10T05:56:51.878Z,56.47
2019-03-10T05:58:56.455Z,56.50
2019-03-10T06:01:00.871Z,57.30
2019-03-10T06:03:05.490Z,53.77
2019-03-10T06:05:10.259Z,54.20
2019-03-10T06:07:14.501Z,52.07
2019-03-10T06:09:18.913Z,52.33
2019-03-10T06:11:23.520Z,50.17
2019-03-10T06:13:27.884Z,52.10
2019-03-10T06:15:32.732Z,48.43
2019-03-10T06:17:37.207Z,46.90
2019-03-10T06:19:41.628Z,47.27
2019-03-10T06:21:46.806Z,45.07
2019-03-10T06:23:51.123Z,44.77
2019-03-10T06:25:55.895Z,43.30
2019-03-10T06:28:00.277Z,43.47
2019-03-10T06:30:06.029Z,44.53
2019-03-10T06:32:10.481Z,40.47
2019-03-10T06:34:15.271Z,40.80
2019-03-10T06:36:20.649Z,40.33
2019-03-10T06:38:25.609Z,39.77
2019-03-10T06:40:32.413Z,40.80
2019-03-10T06:42:36.010Z,38.37
2019-03-10T06:44:40.390Z,37.40
2019-03-10T06:46:44.621Z,37.90
2019-03-10T06:48:49.032Z,35.33
2019-03-10T06:50:53.281Z,34.37
2019-03-10T06:52:57.483Z,35.20
2019-03-10T06:55:01.803Z,35.83
2019-03-10T06:57:06.111Z,34.33
2019-03-10T06:59:10.633Z,34.43
2019-03-10T07:01:15.712Z,31.13
2019-03-10T07:03:20.411Z,31.47
2019-03-10T07:05:24.880Z,32.00
2019-03-10T07:07:29.356Z,28.87
2019-03-10T07:09:33.880Z,29.93
2019-03-10T07:11:38.048Z,30.20
2019-03-10T07:13:42.825Z,27.63
2019-03-10T07:15:47.096Z,28.20
2019-03-10T07:17:51.642Z,28.43
2019-03-10T07:19:56.076Z,27.83
2019-03-10T07:22:00.722Z,26.77
2019-03-10T07:24:05.376Z,27.37
2019-03-10T07:26:11.246Z,24.67
2019-03-10T07:28:35.778Z,24.83
2019-03-10T07:30:55.977Z,25.50
2019-03-10T07:33:31.737Z,24.67
2019-03-10T07:35:48.080Z,24.10
2019-03-10T07:38:14.229Z,22.80
2019-03-10T07:40:52.499Z,22.60
2019-03-10T07:43:25.971Z,22.10
2019-03-10T07:45:39.270Z,22.90
2019-03-10T07:47:57.973Z,21.67
2019-03-10T07:50:14.514Z,21.00
2019-03-10T07:52:37.865Z,20.30
2019-03-10T07:55:07.640Z,21.27
2019-03-10T07:57:29.447Z,18.83
2019-03-10T07:59:49.451Z,19.63
2019-03-10T08:02:11.471Z,19.93
2019-03-10T08:04:24.879Z,18.43
2019-03-10T08:06:57.847Z,17.67
2019-03-10T08:09:13.812Z,17.63
2019-03-10T08:11:27.637Z,17.70
2019-03-10T08:13:46.774Z,17.00
2019-03-10T08:16:11.678Z,17.70
2019-03-10T08:18:38.887Z,15.40
2019-03-10T08:21:15.202Z,15.97
2019-03-10T08:23:48.963Z,15.80
2019-03-10T08:26:08.398Z,14.83
2019-03-10T08:28:43.522Z,14.60
2019-03-10T08:31:22.513Z,15.00
2019-03-10T08:33:45.030Z,14.87
2019-03-10T08:35:59.351Z,14.67
2019-03-10T08:38:37.733Z,14.80
2019-03-10T08:40:52.485Z,12.40
2019-03-10T08:43:12.729Z,14.20
2019-03-10T08:45:36.317Z,12.70
2019-03-10T08:47:57.986Z,12.00
2019-03-10T08:50:08.100Z,11.87
2019-03-10T08:52:22.536Z,12.57
2019-03-10T08:54:35.541Z,12.27
2019-03-10T08:56:59.815Z,12.70
2019-03-10T08:59:26.720Z,12.17
2019-03-10T09:02:11.193Z,11.70
2019-03-10T09:04:36.115Z,10.80
2019-03-10T09:07:07.099Z,11.30
2019-03-10T09:09:39.492Z,10.30
2019-03-10T09:12:40.300Z,10.87
2019-03-10T09:15:18.490Z,9.90
2019-03-10T09:17:46.872Z,9.90
2019-03-10T09:20:22.301Z,9.70
2019-03-10T09:22:51.421Z,10.90
2019-03-10T09:25:26.662Z,9.80
2019-03-10T09:27:59.167Z,9.17
2019-03-10T09:30:20.741Z,8.83
2019-03-10T09:32:51.677Z,9.07
2019-03-10T09:35:09.508Z,8.37
2019-03-10T09:37:33.844Z,8.47
2019-03-10T09:39:53.920Z,8.40
2019-03-10T09:42:15.858Z,8.53
2019-03-10T09:44:50.288Z,8.23
2019-03-10T09:47:25.491Z,8.00
2019-03-10T09:50:12.198Z,8.03
2019-03-10T09:52:39.813Z,7.77
2019-03-10T09:55:10.676Z,7.40
2019-03-10T09:57:39.554Z,6.80
2019-03-10T09:59:56.311Z,7.87
2019-03-10T10:02:36.368Z,7.13
2019-03-10T10:04:48.235Z,7.47
2019-03-10T10:07:16.297Z,6.70
2019-03-10T10:09:31.562Z,7.07
2019-03-10T10:12:12.639Z,6.23
2019-03-10T10:14:18.961Z,6.50
2019-03-10T10:16:31.772Z,6.90
2019-03-10T10:18:58.535Z,6.40
2019-03-10T10:21:23.163Z,6.30
2019-03-10T10:23:40.305Z,6.60
2019-03-10T10:26:11.093Z,6.23
2019-03-10T10:28:28.255Z,5.97
2019-03-10T10:30:54.756Z,5.90
2019-03-10T10:33:18.623Z,6.10
2019-03-10T10:35:40.115Z,5.87
2019-03-10T10:38:03.943Z,4.63
2019-03-10T10:40:24.640Z,5.93
2019-03-10T10:42:46.546Z,5.07
2019-03-10T10:45:04.252Z,5.30
2019-03-10T10:47:29.790Z,5.17
2019-03-10T10:49:57.725Z,4.90
2019-03-10T10:52:17.149Z,4.97
2019-03-10T10:54:52.380Z,4.93
2019-03-10T10:57:21.649Z,5.00
2019-03-10T10:59:58.212Z,4.60
2019-03-10T11:02:13.814Z,4.77
2019-03-10T11:04:42.297Z,4.70
2019-03-10T11:07:02.915Z,5.70
2019-03-10T11:09:37.731Z,4.10
2019-03-10T11:11:52.987Z,4.10
2019-03-10T11:14:32.425Z,5.00
2019-03-10T11:17:04.430Z,4.70
2019-03-10T11:19:27.977Z,4.60
2019-03-10T11:21:53.500Z,21.50
2019-03-10T11:24:22.595Z,488.33
2019-03-10T11:26:57.841Z,541.63
2019-03-10T11:29:11.422Z,647.20
2019-03-10T11:31:35.748Z,637.77
2019-03-10T11:33:54.130Z,430.27
2019-03-10T11:36:17.372Z,887.70
2019-03-10T11:38:31.453Z,582.23
2019-03-10T11:40:50.462Z,731.83
2019-03-10T11:43:22.879Z,446.00
2019-03-10T11:45:43.285Z,220.70
2019-03-10T11:48:07.543Z,907.67
2019-03-10T11:50:19.471Z,736.97
2019-03-10T11:52:44.049Z,324.53
2019-03-10T11:55:01.013Z,249.37
2019-03-10T11:57:22.935Z,63.53
2019-03-10T11:59:33.794Z,36.87
2019-03-10T12:01:59.525Z,28.53
2019-03-10T12:04:19.130Z,726.90
2019-03-10T12:06:30.403Z,70.17
2019-03-10T12:09:05.326Z,57.57
2019-03-10T12:11:10.196Z,913.63
2019-03-10T12:13:14.825Z,883.77
2019-03-10T12:15:19.191Z,930.67
2019-03-10T12:17:23.710Z,732.73
2019-03-10T12:19:33.870Z,395.40
2019-03-10T12:21:40.006Z,181.20
2019-03-10T12:23:44.785Z,163.30
2019-03-10T12:25:49.795Z,278.00
2019-03-10T12:27:54.138Z,257.47
2019-03-10T12:29:59.714Z,42.20
2019-03-10T12:32:04.236Z,24.13
2019-03-10T12:34:08.507Z,17.03
2019-03-10T12:36:12.854Z,12.10
2019-03-10T12:38:17.394Z,14.20
2019-03-10T12:40:21.637Z,6.50
2019-03-10T12:42:26.162Z,6.00
2019-03-10T12:44:30.807Z,5.40
2019-03-10T12:46:35.591Z,7.23
2019-03-10T12:48:41.410Z,4.03
2019-03-10T12:50:45.719Z,4.57
2019-03-10T12:52:50.026Z,4.20
2019-03-10T12:54:54.260Z,4.17
2019-03-10T12:56:58.624Z,24.77
2019-03-10T12:59:04.626Z,25.17
2019-03-10T13:01:09.068Z,61.10
2019-03-10T13:03:13.911Z,12.10
2019-03-10T13:05:20.104Z,5.90
2019-03-10T13:07:25.705Z,5.40
2019-03-10T13:09:29.983Z,12.37
2019-03-10T13:11:34.644Z,73.30
2019-03-10T13:13:38.991Z,92.97
2019-03-10T13:15:43.346Z,13.50
2019-03-10T13:17:56.213Z,226.20
2019-03-10T13:20:00.448Z,652.67
2019-03-10T13:22:05.277Z,45.80
2019-03-10T13:24:09.561Z,182.03
2019-03-10T13:26:15.247Z,230.20
2019-03-10T13:28:19.617Z,280.27
2019-03-10T13:30:24.438Z,412.73
2019-03-10T13:32:29.423Z,461.83
2019-03-10T13:34:33.739Z,663.50
2019-03-10T13:36:38.673Z,512.60
2019-03-10T13:38:43.373Z,481.03
2019-03-10T13:40:48.039Z,336.50
2019-03-10T13:42:52.730Z,195.77
2019-03-10T13:44:57.381Z,86.30
2019-03-10T13:47:01.631Z,37.70
2019-03-10T13:49:09.736Z,14.67
2019-03-10T13:51:14.447Z,6.33
2019-03-10T13:53:18.739Z,4.00
2019-03-10T13:55:22.940Z,2.90
2019-03-10T13:57:27.171Z,2.60
2019-03-10T13:59:31.532Z,2.33
2019-03-10T14:01:36.751Z,25.30
2019-03-10T14:03:41.871Z,7.73
2019-03-10T14:05:46.727Z,64.83
2019-03-10T14:07:51.188Z,119.13
2019-03-10T14:09:55.719Z,102.70
2019-03-10T14:12:02.191Z,264.27
2019-03-10T14:14:06.582Z,74.30
2019-03-10T14:16:11.031Z,583.10
2019-03-10T14:18:15.706Z,295.90
2019-03-10T14:20:19.996Z,62.67
2019-03-10T14:22:24.264Z,41.43
2019-03-10T14:24:28.577Z,7.30
2019-03-10T14:26:33.460Z,3.50
2019-03-10T14:28:37.764Z,2.00
2019-03-10T14:30:42.519Z,1.20
2019-03-10T14:32:47.085Z,1.90
2019-03-10T14:34:52.044Z,1.50
2019-03-10T14:36:56.666Z,1.60
2019-03-10T14:39:00.991Z,1.50
2019-03-10T14:41:05.820Z,1.43
2019-03-10T14:43:10.349Z,1.47
2019-03-10T14:45:15.159Z,1.50
2019-03-10T14:47:20.975Z,1.17
2019-03-10T14:49:25.331Z,1.20
2019-03-10T14:51:33.370Z,1.37
2019-03-10T14:53:38.150Z,1.30
2019-03-10T14:55:43.322Z,1.30
2019-03-10T14:57:48.379Z,1.60
2019-03-10T14:59:53.291Z,1.60
2019-03-10T15:02:00.120Z,1.40
2019-03-10T15:04:05.099Z,1.43
2019-03-10T15:06:10.864Z,1.30
2019-03-10T15:08:15.164Z,1.40
2019-03-10T15:10:19.951Z,1.10
2019-03-10T15:12:24.673Z,1.50
2019-03-10T15:14:29.092Z,1.57
2019-03-10T15:16:33.763Z,1.73
2019-03-10T15:18:38.352Z,1.63
2019-03-10T15:20:43.461Z,1.27
2019-03-10T15:22:48.099Z,1.97
2019-03-10T15:24:53.231Z,1.43
2019-03-10T15:26:57.687Z,1.23
2019-03-10T15:29:02.388Z,1.37
2019-03-10T15:31:12.591Z,1.80
2019-03-10T15:33:18.034Z,1.43
2019-03-10T15:35:22.440Z,1.57
2019-03-10T15:37:26.825Z,1.20
2019-03-10T15:39:31.603Z,1.40
2019-03-10T15:41:38.800Z,1.37
2019-03-10T15:43:45.406Z,1.30
2019-03-10T15:45:52.137Z,1.30
2019-03-10T15:47:57.283Z,1.70
2019-03-10T15:50:09.674Z,1.37
2019-03-10T15:52:16.905Z,1.23
2019-03-10T15:54:22.390Z,1.70
2019-03-10T15:56:26.706Z,1.20
2019-03-10T15:58:31.360Z,1.40
2019-03-10T16:00:37.975Z,1.60
2019-03-10T16:02:42.830Z,1.50
2019-03-10T16:04:49.523Z,2.07
2019-03-10T16:06:55.122Z,1.80
2019-03-10T16:09:00.794Z,1.83
2019-03-10T16:11:10.271Z,1.60
2019-03-10T16:13:18.069Z,1.73
2019-03-10T16:15:22.690Z,1.33
2019-03-10T16:17:27.040Z,1.10
2019-03-10T16:19:32.020Z,1.60
2019-03-10T16:21:37.119Z,1.10
2019-03-10T16:23:42.000Z,1.70
2019-03-10T16:25:48.346Z,1.60
2019-03-10T16:27:53.374Z,1.13
2019-03-10T16:29:58.065Z,1.77
2019-03-10T16:32:04.440Z,1.50
2019-03-10T16:34:11.537Z,1.60
2019-03-10T16:36:15.938Z,1.47
2019-03-10T16:38:20.287Z,1.67
2019-03-10T16:40:24.463Z,25.33
2019-03-10T16:42:29.048Z,4.50
2019-03-10T16:44:34.640Z,286.87
2019-03-10T16:46:39.320Z,465.53
2019-03-10T16:48:44.185Z,168.33
2019-03-10T16:50:49.084Z,41.47
2019-03-10T16:52:53.393Z,9.63
2019-03-10T16:54:57.677Z,4.10
2019-03-10T16:57:01.974Z,2.73
2019-03-10T16:59:10.303Z,2.00
2019-03-10T17:01:14.774Z,1.47
2019-03-10T17:03:19.531Z,2.13
2019-03-10T17:05:23.795Z,1.70
2019-03-10T17:07:28.116Z,1.73
2019-03-10T17:09:32.485Z,1.33
2019-03-10T17:11:38.814Z,1.23
2019-03-10T17:13:43.203Z,206.87
2019-03-10T17:15:48.101Z,189.87
2019-03-10T17:17:52.451Z,439.77
2019-03-10T17:19:57.264Z,542.63
2019-03-10T17:22:03.018Z,563.53
2019-03-10T17:24:07.889Z,303.20
2019-03-10T17:26:12.393Z,336.47
2019-03-10T17:28:16.901Z,683.63
2019-03-10T17:30:22.158Z,769.60
2019-03-10T17:32:26.574Z,853.80
2019-03-10T17:34:31.176Z,639.47
2019-03-10T17:36:35.495Z,260.03
2019-03-10T17:38:40.285Z,281.47
2019-03-10T17:40:44.804Z,223.43
2019-03-10T17:42:49.456Z,74.80
2019-03-10T17:44:54.181Z,27.33
2019-03-10T17:47:00.330Z,105.77
2019-03-10T17:49:04.845Z,162.50
2019-03-10T17:51:11.099Z,121.30
2019-03-10T17:53:16.156Z,82.63
2019-03-10T17:55:21.130Z,138.17
2019-03-10T17:57:25.551Z,411.27
2019-03-10T17:59:29.937Z,75.50
2019-03-10T18:01:34.902Z,96.63
2019-03-10T18:03:41.252Z,392.53
2019-03-10T18:05:45.602Z,484.43
2019-03-10T18:07:49.961Z,340.30
2019-03-10T18:09:54.248Z,48.97
2019-03-10T18:11:58.851Z,12.40
2019-03-10T18:14:11.801Z,10.70
2019-03-10T18:16:16.468Z,235.70
2019-03-10T18:18:21.019Z,130.30
2019-03-10T18:20:25.468Z,16.77
2019-03-10T18:22:31.423Z,37.43
2019-03-10T18:24:36.425Z,59.03
2019-03-10T18:26:43.496Z,273.93
2019-03-10T18:28:48.070Z,23.57
2019-03-10T18:30:52.490Z,478.60
2019-03-10T18:32:56.939Z,467.23
2019-03-10T18:35:01.631Z,145.43
2019-03-10T18:37:08.818Z,24.87
2019-03-10T18:39:13.733Z,27.17
2019-03-10T18:41:18.495Z,118.43
2019-03-10T18:43:25.237Z,49.93
2019-03-10T18:45:33.004Z,55.40
2019-03-10T18:47:37.785Z,19.80
2019-03-10T18:49:42.716Z,40.40
2019-03-10T18:51:49.026Z,108.70
2019-03-10T18:53:53.478Z,59.47
2019-03-10T18:55:58.318Z,148.63
2019-03-10T18:58:03.289Z,465.27
2019-03-10T19:00:23.536Z,269.57
2019-03-10T19:02:28.606Z,185.50
2019-03-10T19:04:36.749Z,258.47
2019-03-10T19:06:42.014Z,42.87
2019-03-10T19:08:46.478Z,10.13
2019-03-10T19:10:51.695Z,118.90
2019-03-10T19:12:57.187Z,158.73
2019-03-10T19:15:04.885Z,111.37
2019-03-10T19:17:14.185Z,50.87
2019-03-10T19:19:20.554Z,132.00
2019-03-10T19:21:29.994Z,68.23
2019-03-10T19:23:36.529Z,32.03
2019-03-10T19:25:52.043Z,64.83
2019-03-10T19:27:54.691Z,9.50
2019-03-10T19:29:59.387Z,2.80
2019-03-10T19:32:06.284Z,1.53
2019-03-10T19:34:10.858Z,1.40
2019-03-10T19:36:18.669Z,1.10
2019-03-10T19:38:24.874Z,2.37
2019-03-10T19:40:30.068Z,22.63
2019-03-10T19:42:34.600Z,55.47
2019-03-10T19:44:42.801Z,2.63
2019-03-10T19:46:49.415Z,1.30
2019-03-10T19:48:55.336Z,0.93
2019-03-10T19:51:04.691Z,23.60
2019-03-10T19:53:11.624Z,1.43
2019-03-10T19:55:18.731Z,65.03
2019-03-10T19:57:25.931Z,6.17
2019-03-10T19:59:31.525Z,181.67
2019-03-10T20:01:40.467Z,43.87
2019-03-10T20:03:45.696Z,7.47
2019-03-10T20:05:50.354Z,170.03
2019-03-10T20:07:55.356Z,292.03
2019-03-10T20:10:00.110Z,179.07
2019-03-10T20:12:06.927Z,45.70
2019-03-10T20:14:13.163Z,9.87
2019-03-10T20:16:17.682Z,3.37
2019-03-10T20:18:22.637Z,8.90
2019-03-10T20:20:27.586Z,2.70
2019-03-10T20:22:33.469Z,5.90
2019-03-10T20:24:41.271Z,1.87
2019-03-10T20:26:45.807Z,12.07
2019-03-10T20:28:52.785Z,1.80
2019-03-10T20:30:57.863Z,1.40
2019-03-10T20:33:02.817Z,259.13
2019-03-10T20:35:07.981Z,135.03
2019-03-10T20:37:13.232Z,8.17
2019-03-10T20:39:18.804Z,19.03
2019-03-10T20:41:25.057Z,150.73
2019-03-10T20:43:32.160Z,46.47
2019-03-10T20:45:39.023Z,4.30
2019-03-10T20:47:45.225Z,5.67
2019-03-10T20:49:50.460Z,81.87
2019-03-10T20:51:55.357Z,48.07
2019-03-10T20:54:00.967Z,74.60
2019-03-10T20:56:07.716Z,38.37
2019-03-10T20:58:14.775Z,22.67
2019-03-10T21:00:23.313Z,10.30
2019-03-10T21:02:30.201Z,10.43
2019-03-10T21:04:34.759Z,70.43
2019-03-10T21:06:40.319Z,20.43
2019-03-10T21:08:46.520Z,14.37
2019-03-10T21:10:51.066Z,15.70
2019-03-10T21:12:56.019Z,17.17
2019-03-10T21:15:00.603Z,80.60
2019-03-10T21:17:05.608Z,578.60
2019-03-10T21:19:10.431Z,315.53
2019-03-10T21:21:15.586Z,511.23
2019-03-10T21:23:20.127Z,449.97
2019-03-10T21:25:25.000Z,229.50
2019-03-10T21:27:31.891Z,222.40
2019-03-10T21:29:36.743Z,105.40
2019-03-10T21:31:41.423Z,146.23
2019-03-10T21:33:47.681Z,301.70
2019-03-10T21:35:52.385Z,123.10
2019-03-10T21:37:58.146Z,60.00
2019-03-10T21:40:04.610Z,269.20
2019-03-10T21:42:13.935Z,320.10
2019-03-10T21:44:26.448Z,231.27
2019-03-10T21:46:25.199Z,120.60
2019-03-10T21:48:33.111Z,42.13
2019-03-10T21:50:41.067Z,27.53
2019-03-10T21:52:45.516Z,25.10
2019-03-10T21:54:50.660Z,26.00
2019-03-10T21:56:58.914Z,27.10
2019-03-10T21:59:04.610Z,23.77
2019-03-10T22:01:12.425Z,36.50
2019-03-10T22:03:17.707Z,40.87
2019-03-10T22:05:22.686Z,148.27
2019-03-10T22:07:28.016Z,541.03
2019-03-10T22:09:32.487Z,289.40
2019-03-10T22:11:37.331Z,378.43
2019-03-10T22:13:46.486Z,308.33
2019-03-10T22:15:48.172Z,549.47
2019-03-10T22:17:52.678Z,248.87
2019-03-10T22:19:58.047Z,83.00
2019-03-10T22:22:03.575Z,471.73
2019-03-10T22:24:08.498Z,169.97
2019-03-10T22:26:14.277Z,100.13
2019-03-10T22:35:19.210Z,15.27
2019-03-10T22:37:23.503Z,17.37
2019-03-10T22:39:28.618Z,17.17
2019-03-10T22:41:32.978Z,19.07
2019-03-10T22:43:37.310Z,18.47
2019-03-10T22:45:42.134Z,21.53
2019-03-10T22:47:46.686Z,21.13
2019-03-10T22:49:51.742Z,19.80
2019-03-10T22:51:56.114Z,19.77
2019-03-10T22:54:00.705Z,21.03
2019-03-10T22:56:06.106Z,20.93
2019-03-10T22:58:11.187Z,20.67
2019-03-10T23:00:21.114Z,18.60
2019-03-10T23:04:40.203Z,18.93
2019-03-10T23:06:44.445Z,18.27
2019-03-10T23:08:54.606Z,18.63
2019-03-10T23:11:00.330Z,18.40
2019-03-10T23:13:04.957Z,17.10
2019-03-10T23:15:12.193Z,18.20
2019-03-10T23:17:17.155Z,18.00
2019-03-10T23:19:21.449Z,16.87
2019-03-10T23:21:33.453Z,16.20
2019-03-10T23:23:38.429Z,101.50
2019-03-10T23:25:42.792Z,596.63
2019-03-10T23:27:47.970Z,663.50
2019-03-10T23:29:53.693Z,506.10
2019-03-10T23:31:58.452Z,301.97
2019-03-10T23:34:03.531Z,81.03
2019-03-10T23:36:08.765Z,29.37
2019-03-10T23:38:13.443Z,18.20
2019-03-10T23:40:18.070Z,15.90
2019-03-10T23:42:22.963Z,15.77
2019-03-10T23:44:27.192Z,14.47
2019-03-10T23:46:31.725Z,14.37
2019-03-10T23:48:36.910Z,13.73
2019-03-10T23:50:41.463Z,13.40
2019-03-10T23:52:46.093Z,15.00
2019-03-10T23:54:51.081Z,13.50
2019-03-10T23:56:55.651Z,13.27
2019-03-10T23:59:00.090Z,13.60
